createdAt,value
2022-11-04T00:00:32.250Z,44.30
2022-11-04T00:02:59.596Z,44.26
2022-11-04T00:05:26.632Z,44.10
2022-11-04T00:08:12.089Z,42.94
2022-11-04T00:10:59.314Z,42.96
2022-11-04T00:13:32.274Z,42.45
2022-11-04T00:16:21.256Z,42.67
2022-11-04T00:18:52.689Z,42.31
2022-11-04T00:21:38.723Z,41.79
2022-11-04T00:24:25.268Z,42.00
2022-11-04T00:27:10.818Z,41.45
2022-11-04T00:29:38.497Z,41.14
2022-11-04T00:32:23.857Z,40.39
2022-11-04T00:34:51.190Z,40.68
2022-11-04T00:37:18.321Z,40.77
2022-11-04T00:39:46.914Z,41.16
2022-11-04T00:42:14.056Z,41.10
2022-11-04T00:44:41.213Z,41.25
2022-11-04T00:47:08.972Z,41.20
2022-11-04T00:49:36.811Z,41.28
2022-11-04T00:52:04.065Z,42.01
2022-11-04T00:54:32.373Z,41.47
2022-11-04T00:56:59.470Z,41.69
2022-11-04T01:02:49.470Z,41.23
2022-11-04T01:05:41.928Z,41.52
2022-11-04T01:08:14.962Z,41.27
2022-11-04T01:10:55.862Z,41.23
2022-11-04T01:13:27.687Z,41.44
2022-11-04T01:16:03.658Z,41.20
2022-11-04T01:18:42.376Z,41.09
2022-11-04T01:21:16.071Z,41.21
2022-11-04T01:23:46.695Z,40.94
2022-11-04T01:26:22.484Z,40.80
2022-11-04T01:29:00.193Z,41.02
2022-11-04T01:31:35.598Z,41.02
2022-11-04T01:34:23.848Z,40.95
2022-11-04T01:37:10.029Z,40.34
2022-11-04T01:40:13.576Z,40.50
2022-11-04T01:42:59.455Z,40.26
2022-11-04T01:45:58.212Z,40.24
2022-11-04T01:48:48.148Z,40.33
2022-11-04T01:51:36.383Z,40.67
2022-11-04T01:54:17.418Z,40.29
2022-11-04T01:57:00.868Z,41.22
2022-11-04T01:59:35.777Z,41.31
2022-11-04T02:02:04.464Z,40.84
2022-11-04T02:04:39.653Z,40.63
2022-11-04T02:07:17.166Z,40.08
2022-11-04T02:09:57.100Z,40.44
2022-11-04T02:12:54.158Z,40.39
2022-11-04T02:15:35.074Z,39.69
2022-11-04T02:18:28.226Z,39.53
2022-11-04T02:21:31.094Z,39.31
2022-11-04T02:24:23.484Z,39.41
2022-11-04T02:27:31.638Z,38.87
2022-11-04T02:30:08.890Z,39.25
2022-11-04T02:33:11.599Z,39.24
2022-11-04T02:35:58.850Z,39.07
2022-11-04T02:38:56.933Z,39.45
2022-11-04T02:41:53.307Z,39.42
2022-11-04T02:44:42.313Z,39.24
2022-11-04T02:47:25.080Z,39.00
2022-11-04T02:50:06.107Z,39.05
2022-11-04T02:53:01.811Z,38.55
2022-11-04T02:56:00.767Z,38.99
2022-11-04T02:58:38.190Z,38.64
2022-11-04T03:01:12.221Z,38.83
2022-11-04T03:03:43.630Z,38.72
2022-11-04T03:06:15.186Z,39.01
2022-11-04T03:08:51.291Z,38.95
2022-11-04T03:11:29.421Z,38.83
2022-11-04T03:14:05.080Z,38.76
2022-11-04T03:16:41.016Z,38.97
2022-11-04T03:19:40.065Z,39.02
2022-11-04T03:22:14.709Z,38.78
2022-11-04T03:24:47.466Z,39.03
2022-11-04T03:27:33.789Z,38.54
2022-11-04T03:30:09.495Z,38.71
2022-11-04T03:33:05.934Z,38.38
2022-11-04T03:35:34.029Z,38.50
2022-11-04T03:38:02.567Z,38.59
2022-11-04T03:40:30.153Z,39.08
2022-11-04T03:43:13.115Z,38.81
2022-11-04T03:45:42.092Z,38.86
2022-11-04T03:48:10.481Z,38.89
2022-11-04T03:50:50.031Z,39.04
2022-11-04T03:56:15.049Z,39.04
2022-11-04T04:02:51.493Z,39.56
2022-11-04T04:05:44.668Z,39.09
2022-11-04T04:08:44.369Z,39.91
2022-11-04T04:11:55.893Z,39.48
2022-11-04T04:14:46.771Z,39.71
2022-11-04T04:17:25.555Z,39.30
2022-11-04T04:20:07.131Z,39.81
2022-11-04T04:22:46.332Z,39.45
2022-11-04T04:25:39.604Z,40.04
2022-11-04T04:28:22.606Z,39.40
2022-11-04T04:31:03.692Z,39.70
2022-11-04T04:33:40.379Z,39.80
2022-11-04T04:36:32.737Z,39.71
2022-11-04T04:39:48.015Z,39.84
2022-11-04T04:42:50.490Z,39.54
2022-11-04T04:45:40.986Z,39.85
2022-11-04T04:48:29.946Z,39.70
2022-11-04T04:51:13.277Z,39.61
2022-11-04T04:53:48.276Z,39.53
2022-11-04T05:02:10.311Z,38.53
2022-11-04T05:04:37.938Z,38.53
2022-11-04T05:07:07.005Z,39.15
2022-11-04T05:09:34.367Z,38.86
2022-11-04T05:12:01.931Z,38.67
2022-11-04T05:14:30.120Z,38.50
2022-11-04T05:16:59.253Z,38.84
2022-11-04T05:19:26.677Z,38.65
2022-11-04T05:21:53.782Z,38.78
2022-11-04T05:24:21.091Z,39.39
2022-11-04T05:26:50.885Z,39.13
2022-11-04T05:29:18.186Z,38.84
2022-11-04T05:31:46.225Z,38.75
2022-11-04T05:34:16.283Z,38.53
2022-11-04T05:36:44.158Z,38.52
2022-11-04T05:39:13.557Z,38.50
2022-11-04T05:41:42.148Z,38.94
2022-11-04T05:44:11.114Z,39.20
2022-11-04T05:46:43.103Z,39.25
2022-11-04T05:49:10.576Z,39.28
2022-11-04T05:51:38.066Z,38.94
2022-11-04T05:54:05.322Z,39.10
2022-11-04T05:56:32.370Z,39.07
2022-11-04T05:58:59.757Z,39.07
2022-11-04T06:01:40.295Z,39.38
2022-11-04T06:04:08.197Z,38.85
2022-11-04T06:06:36.974Z,39.19
2022-11-04T06:09:04.630Z,38.81
2022-11-04T06:11:35.020Z,38.86
2022-11-04T06:14:02.347Z,39.81
2022-11-04T06:16:31.971Z,39.30
2022-11-04T06:19:05.755Z,39.13
2022-11-04T06:21:36.900Z,38.97
2022-11-04T06:24:04.514Z,38.72
2022-11-04T06:26:32.364Z,38.62
2022-11-04T06:29:00.048Z,38.91
2022-11-04T06:31:33.088Z,38.88
2022-11-04T06:34:00.410Z,39.97
2022-11-04T06:36:27.617Z,39.73
2022-11-04T06:39:00.032Z,39.83
2022-11-04T06:41:34.229Z,40.53
2022-11-04T06:44:01.816Z,38.98
2022-11-04T06:46:32.224Z,38.09
2022-11-04T06:49:03.226Z,38.98
2022-11-04T06:51:31.904Z,38.76
2022-11-04T06:53:59.443Z,38.52
2022-11-04T06:56:26.816Z,38.69
2022-11-04T06:58:54.983Z,39.59
2022-11-04T07:01:29.936Z,39.02
2022-11-04T07:03:59.190Z,38.78
2022-11-04T07:06:44.232Z,39.04
2022-11-04T07:09:16.884Z,38.57
2022-11-04T07:11:45.738Z,39.07
2022-11-04T07:14:14.224Z,37.97
2022-11-04T07:16:41.483Z,38.30
2022-11-04T07:19:09.199Z,37.97
2022-11-04T07:21:50.039Z,36.89
2022-11-04T07:24:26.894Z,37.56
2022-11-04T07:29:40.336Z,37.39
2022-11-04T07:32:13.122Z,38.09
2022-11-04T07:34:46.483Z,37.30
2022-11-04T07:37:21.025Z,37.56
2022-11-04T07:40:00.092Z,37.57
2022-11-04T07:42:30.525Z,37.54
2022-11-04T07:45:05.720Z,37.70
2022-11-04T07:47:33.417Z,37.79
2022-11-04T07:50:11.642Z,37.24
2022-11-04T07:52:42.200Z,37.34
2022-11-04T07:57:53.890Z,37.75
2022-11-04T08:00:25.724Z,37.79
2022-11-04T08:02:52.974Z,38.13
2022-11-04T08:05:27.719Z,38.13
2022-11-04T08:07:58.123Z,37.84
2022-11-04T08:10:30.230Z,37.73
2022-11-04T08:12:58.090Z,38.08
2022-11-04T08:15:29.505Z,37.67
2022-11-04T08:17:56.754Z,37.55
2022-11-04T08:20:27.340Z,37.36
2022-11-04T08:23:05.027Z,37.03
2022-11-04T08:25:32.739Z,37.02
2022-11-04T08:28:03.405Z,36.85
2022-11-04T08:30:32.959Z,35.92
2022-11-04T08:33:03.296Z,35.17
2022-11-04T08:35:31.642Z,34.86
2022-11-04T08:37:58.962Z,34.21
2022-11-04T08:40:26.589Z,34.28
2022-11-04T08:42:53.869Z,33.65
2022-11-04T08:45:28.767Z,33.03
2022-11-04T08:48:05.303Z,33.18
2022-11-04T08:50:33.094Z,32.80
2022-11-04T08:53:00.308Z,31.53
2022-11-04T08:55:32.601Z,31.61
2022-11-04T08:58:00.957Z,31.88
2022-11-04T09:00:28.255Z,31.44
2022-11-04T09:02:56.296Z,31.02
2022-11-04T09:05:23.823Z,30.75
2022-11-04T09:07:51.349Z,30.08
2022-11-04T09:10:25.798Z,29.97
2022-11-04T09:13:16.997Z,29.79
2022-11-04T09:15:47.916Z,29.71
2022-11-04T09:18:16.870Z,29.44
2022-11-04T09:20:47.312Z,29.33
2022-11-04T09:23:15.367Z,29.61
2022-11-04T09:25:42.481Z,28.90
2022-11-04T09:28:09.668Z,28.84
2022-11-04T09:30:38.359Z,28.25
2022-11-04T09:33:05.606Z,28.51
2022-11-04T09:35:33.705Z,28.63
2022-11-04T09:38:06.679Z,28.48
2022-11-04T09:40:36.616Z,27.81
2022-11-04T09:43:39.849Z,27.17
2022-11-04T09:46:17.553Z,27.26
2022-11-04T09:48:54.618Z,27.07
2022-11-04T09:51:52.439Z,27.17
2022-11-04T09:54:47.226Z,27.07
2022-11-04T09:57:18.471Z,27.33
2022-11-04T09:59:57.044Z,27.43
2022-11-04T10:02:45.700Z,27.41
2022-11-04T10:05:44.947Z,27.23
2022-11-04T10:09:04.144Z,26.34
2022-11-04T10:12:19.235Z,26.41
2022-11-04T10:15:21.220Z,26.86
2022-11-04T10:18:10.339Z,26.17
2022-11-04T10:20:55.666Z,26.74
2022-11-04T10:23:52.794Z,25.53
2022-11-04T10:26:37.708Z,25.35
2022-11-04T10:29:47.306Z,24.81
2022-11-04T10:32:47.527Z,24.86
2022-11-04T10:35:45.652Z,24.55
2022-11-04T10:38:38.811Z,24.43
2022-11-04T10:41:30.212Z,24.74
2022-11-04T10:44:27.127Z,24.34
2022-11-04T10:47:19.282Z,24.15
2022-11-04T10:50:27.885Z,23.06
2022-11-04T10:53:11.539Z,23.58
2022-11-04T10:55:48.409Z,23.06
2022-11-04T10:58:33.548Z,22.71
2022-11-04T11:01:28.806Z,23.10
2022-11-04T11:04:09.023Z,23.33
2022-11-04T11:06:42.082Z,23.34
2022-11-04T11:09:26.116Z,23.84
2022-11-04T11:12:01.603Z,23.25
2022-11-04T11:14:38.000Z,22.74
2022-11-04T11:17:23.001Z,22.34
2022-11-04T11:20:20.435Z,22.10
2022-11-04T11:23:00.484Z,22.31
2022-11-04T11:25:37.601Z,21.77
2022-11-04T11:28:25.577Z,21.59
2022-11-04T11:31:02.845Z,20.69
2022-11-04T11:33:37.254Z,20.76
2022-11-04T11:36:24.251Z,20.60
2022-11-04T11:39:20.190Z,20.15
2022-11-04T11:42:06.581Z,19.58
2022-11-04T11:44:44.788Z,19.98
2022-11-04T11:47:28.206Z,20.38
2022-11-04T11:50:34.713Z,20.35
2022-11-04T11:53:35.851Z,19.93
2022-11-04T11:56:23.976Z,20.04
2022-11-04T12:02:40.507Z,19.75
2022-11-04T12:12:22.118Z,19.78
2022-11-04T12:15:05.902Z,19.29
2022-11-04T12:17:53.541Z,18.90
2022-11-04T12:20:39.545Z,19.01
2022-11-04T12:23:30.418Z,18.77
2022-11-04T12:26:24.768Z,18.49
2022-11-04T12:29:10.053Z,18.20
2022-11-04T12:32:02.148Z,18.78
2022-11-04T12:34:59.319Z,18.18
2022-11-04T12:37:53.097Z,17.81
2022-11-04T12:40:25.566Z,17.93
2022-11-04T12:43:26.441Z,18.57
2022-11-04T12:49:34.762Z,17.59
2022-11-04T12:52:40.903Z,17.39
2022-11-04T12:55:58.354Z,16.68
2022-11-04T12:58:57.729Z,17.11
2022-11-04T13:02:01.809Z,16.35
2022-11-04T13:05:13.545Z,15.61
2022-11-04T13:07:54.296Z,16.65
2022-11-04T13:10:57.785Z,16.12
2022-11-04T13:13:41.076Z,16.46
2022-11-04T13:16:18.889Z,16.80
2022-11-04T13:18:57.034Z,17.24
2022-11-04T13:21:39.318Z,16.20
2022-11-04T13:24:33.042Z,15.86
2022-11-04T13:30:25.308Z,15.40
2022-11-04T13:33:17.670Z,13.34
2022-11-04T13:36:13.415Z,13.25
2022-11-04T13:38:53.431Z,13.39
2022-11-04T13:41:49.310Z,13.25
2022-11-04T13:44:36.148Z,13.18
2022-11-04T13:47:22.175Z,13.49
2022-11-04T13:49:59.804Z,13.42
2022-11-04T13:53:07.199Z,13.12
2022-11-04T13:55:50.284Z,12.87
2022-11-04T13:58:41.814Z,13.63
2022-11-04T14:01:27.684Z,14.59
2022-11-04T14:04:36.381Z,15.41
2022-11-04T14:07:14.622Z,15.33
2022-11-04T14:10:00.160Z,15.36
2022-11-04T14:12:41.573Z,17.12
2022-11-04T14:15:36.001Z,16.94
2022-11-04T14:18:30.109Z,17.34
2022-11-04T14:21:20.308Z,17.98
2022-11-04T14:23:54.243Z,17.73
2022-11-04T14:26:54.963Z,17.87
2022-11-04T14:29:28.330Z,17.79
2022-11-04T14:32:01.046Z,18.35
2022-11-04T14:34:42.849Z,18.46
2022-11-04T14:37:35.438Z,18.25
2022-11-04T14:40:07.775Z,19.13
2022-11-04T14:43:02.060Z,19.46
2022-11-04T14:45:49.971Z,19.47
2022-11-04T14:48:20.903Z,20.04
2022-11-04T14:50:52.703Z,20.27
2022-11-04T14:53:32.094Z,20.03
2022-11-04T14:56:21.958Z,20.31
2022-11-04T14:59:18.369Z,21.14
2022-11-04T15:01:53.277Z,21.29
2022-11-04T15:04:35.865Z,21.90
2022-11-04T15:07:05.971Z,21.86
2022-11-04T15:09:53.638Z,21.85
2022-11-04T15:12:39.358Z,22.04
2022-11-04T15:15:30.805Z,22.48
2022-11-04T15:18:05.673Z,22.80
2022-11-04T15:20:40.133Z,23.05
2022-11-04T15:23:25.025Z,23.47
2022-11-04T15:25:52.946Z,23.53
2022-11-04T15:28:33.844Z,23.36
2022-11-04T15:31:18.008Z,23.19
2022-11-04T15:33:55.818Z,23.65
2022-11-04T15:36:38.655Z,23.50
2022-11-04T15:39:24.846Z,23.49
2022-11-04T15:42:14.544Z,23.49
2022-11-04T15:44:48.042Z,23.93
2022-11-04T15:47:17.939Z,24.06
2022-11-04T15:49:47.372Z,23.89
2022-11-04T15:52:25.041Z,23.80
2022-11-04T15:54:54.963Z,23.73
2022-11-04T15:57:27.582Z,24.57
2022-11-04T16:00:25.306Z,24.27
2022-11-04T16:02:58.171Z,24.45
2022-11-04T16:05:40.125Z,24.95
2022-11-04T16:08:29.361Z,24.96
2022-11-04T16:11:18.366Z,25.07
2022-11-04T16:13:48.015Z,25.32
2022-11-04T16:16:27.939Z,25.34
2022-11-04T16:18:58.317Z,25.50
2022-11-04T16:21:35.909Z,25.81
2022-11-04T16:24:22.150Z,25.83
2022-11-04T16:26:50.742Z,25.79
2022-11-04T16:29:28.684Z,25.85
2022-11-04T16:32:20.215Z,26.17
2022-11-04T16:34:52.798Z,25.97
2022-11-04T16:37:23.445Z,25.89
2022-11-04T16:39:53.111Z,26.29
2022-11-04T16:42:22.581Z,25.95
2022-11-04T16:45:00.331Z,26.34
2022-11-04T16:47:31.356Z,26.02
2022-11-04T16:50:02.972Z,26.58
2022-11-04T16:52:36.220Z,26.08
2022-11-04T16:55:06.940Z,26.35
2022-11-04T16:57:35.559Z,26.53
2022-11-04T17:00:07.460Z,26.18
2022-11-04T17:02:41.762Z,26.27
2022-11-04T17:05:10.062Z,26.18
2022-11-04T17:07:52.829Z,26.39
2022-11-04T17:10:38.044Z,27.25
2022-11-04T17:13:08.144Z,26.93
2022-11-04T17:15:35.804Z,26.76
2022-11-04T17:18:06.178Z,27.08
2022-11-04T17:20:33.652Z,26.95
2022-11-04T17:23:06.783Z,27.39
2022-11-04T17:25:35.196Z,27.43
2022-11-04T17:28:05.521Z,27.42
2022-11-04T17:30:33.101Z,27.63
2022-11-04T17:33:00.792Z,27.32
2022-11-04T17:35:30.501Z,27.54
2022-11-04T17:37:58.476Z,27.65
2022-11-04T17:40:32.488Z,27.68
2022-11-04T17:43:20.599Z,27.65
2022-11-04T17:46:15.732Z,28.22
2022-11-04T17:48:46.385Z,28.01
2022-11-04T17:51:16.920Z,27.75
2022-11-04T17:53:59.475Z,28.39
2022-11-04T17:56:31.151Z,28.61
2022-11-04T17:59:09.999Z,28.79
2022-11-04T18:01:38.253Z,28.50
2022-11-04T18:04:12.917Z,28.74
2022-11-04T18:06:59.841Z,28.58
2022-11-04T18:09:33.066Z,28.41
2022-11-04T18:12:34.201Z,27.98
2022-11-04T18:15:22.882Z,28.01
2022-11-04T18:17:54.918Z,28.33
2022-11-04T18:20:22.429Z,28.24
2022-11-04T18:23:00.797Z,28.52
2022-11-04T18:25:32.344Z,28.41
2022-11-04T18:28:02.416Z,28.30
2022-11-04T18:30:31.051Z,28.33
2022-11-04T18:33:00.671Z,28.39
2022-11-04T18:35:30.850Z,28.49
2022-11-04T18:38:01.563Z,28.49
2022-11-04T18:40:32.096Z,28.80
2022-11-04T18:43:12.404Z,28.66
2022-11-04T18:45:39.843Z,28.83
2022-11-04T18:48:08.308Z,28.71
2022-11-04T18:50:37.156Z,28.51
2022-11-04T18:53:04.822Z,28.65
2022-11-04T18:55:34.107Z,28.30
2022-11-04T18:58:01.169Z,28.02
2022-11-04T19:00:31.756Z,28.24
2022-11-04T19:03:01.810Z,28.56
2022-11-04T19:05:29.498Z,28.20
2022-11-04T19:07:56.724Z,28.35
2022-11-04T19:10:23.876Z,28.46
2022-11-04T19:13:11.424Z,28.53
2022-11-04T19:15:38.635Z,28.39
2022-11-04T19:18:06.359Z,28.33
2022-11-04T19:20:35.499Z,28.31
2022-11-04T19:23:05.621Z,28.06
2022-11-04T19:25:37.872Z,28.24
2022-11-04T19:28:32.799Z,28.17
2022-11-04T19:31:03.255Z,27.98
2022-11-04T19:33:31.177Z,28.19
2022-11-04T19:35:59.194Z,28.02
2022-11-04T19:38:26.853Z,28.53
2022-11-04T19:40:55.418Z,28.29
2022-11-04T19:43:23.606Z,28.29
2022-11-04T19:45:51.077Z,28.32
2022-11-04T19:48:19.241Z,28.33
2022-11-04T19:50:49.610Z,27.56
2022-11-04T19:53:21.924Z,27.81
2022-11-04T19:55:55.231Z,27.64
2022-11-04T19:58:25.628Z,27.92
2022-11-04T20:00:53.396Z,27.87
2022-11-04T20:03:21.028Z,27.59
2022-11-04T20:05:48.863Z,27.84
2022-11-04T20:08:15.943Z,27.69
2022-11-04T20:10:43.624Z,28.06
2022-11-04T20:13:35.105Z,27.87
2022-11-04T20:16:03.990Z,29.07
2022-11-04T20:18:31.004Z,29.12
2022-11-04T20:21:01.042Z,28.86
2022-11-04T20:23:28.093Z,29.10
2022-11-04T20:25:57.165Z,29.52
2022-11-04T20:28:24.615Z,29.40
2022-11-04T20:30:51.570Z,29.40
2022-11-04T20:33:18.723Z,29.28
2022-11-04T20:35:45.781Z,28.76
2022-11-04T20:38:18.373Z,29.39
2022-11-04T20:40:47.718Z,29.79
2022-11-04T20:43:14.731Z,29.61
2022-11-04T20:45:49.649Z,30.07
2022-11-04T20:48:19.345Z,30.45
2022-11-04T20:50:46.431Z,29.90
2022-11-04T20:53:13.776Z,30.40
2022-11-04T20:55:41.020Z,30.14
2022-11-04T20:58:08.382Z,30.35
2022-11-04T21:00:37.124Z,29.85
2022-11-04T21:03:04.479Z,29.81
2022-11-04T21:05:32.916Z,29.84
2022-11-04T21:07:59.944Z,29.84
2022-11-04T21:10:29.045Z,29.72
2022-11-04T21:12:57.099Z,29.43
2022-11-04T21:15:42.263Z,30.10
2022-11-04T21:18:11.825Z,30.33
2022-11-04T21:20:42.090Z,30.21
2022-11-04T21:23:10.464Z,30.54
2022-11-04T21:25:47.064Z,30.29
2022-11-04T21:28:15.241Z,30.54
2022-11-04T21:30:45.368Z,30.63
2022-11-04T21:33:13.118Z,30.84
2022-11-04T21:35:41.641Z,31.25
2022-11-04T21:38:12.460Z,31.02
2022-11-04T21:40:40.515Z,30.86
2022-11-04T21:43:07.749Z,31.15
2022-11-04T21:45:36.523Z,31.37
2022-11-04T21:48:04.234Z,31.53
2022-11-04T21:50:31.901Z,31.23
2022-11-04T21:52:59.432Z,31.18
2022-11-04T21:55:27.503Z,30.93
2022-11-04T21:57:54.619Z,31.45
2022-11-04T22:00:21.942Z,31.13
2022-11-04T22:02:52.364Z,30.87
2022-11-04T22:05:19.754Z,31.21
2022-11-04T22:08:05.463Z,31.06
2022-11-04T22:10:32.564Z,31.21
2022-11-04T22:12:59.662Z,31.40
2022-11-04T22:15:45.031Z,31.31
2022-11-04T22:18:12.188Z,31.38
2022-11-04T22:20:39.283Z,31.60
2022-11-04T22:23:06.446Z,31.45
2022-11-04T22:25:33.457Z,31.31
2022-11-04T22:28:00.535Z,31.89
2022-11-04T22:30:29.164Z,32.06
2022-11-04T22:32:56.402Z,32.07
2022-11-04T22:35:23.670Z,31.71
2022-11-04T22:37:50.846Z,31.71
2022-11-04T22:40:18.120Z,31.80
2022-11-04T22:42:45.558Z,32.41
2022-11-04T22:45:16.751Z,32.13
2022-11-04T22:47:44.182Z,32.01
2022-11-04T22:50:11.314Z,32.26
2022-11-04T22:52:38.493Z,32.22
2022-11-04T22:55:06.066Z,32.47
2022-11-04T22:57:33.161Z,32.69
2022-11-04T23:00:02.417Z,32.22
2022-11-04T23:02:35.476Z,31.96
2022-11-04T23:05:04.473Z,32.31
2022-11-04T23:07:31.459Z,32.09
2022-11-04T23:10:19.713Z,32.53
2022-11-04T23:13:05.224Z,32.56
2022-11-04T23:15:50.852Z,32.47
2022-11-04T23:18:36.447Z,32.35
2022-11-04T23:21:22.031Z,32.64
2022-11-04T23:24:07.545Z,32.67
2022-11-04T23:26:34.974Z,32.78
2022-11-04T23:29:20.400Z,32.80
2022-11-04T23:31:47.529Z,33.89
2022-11-04T23:34:32.955Z,33.95
2022-11-04T23:37:12.428Z,33.39
2022-11-04T23:39:50.276Z,33.61
2022-11-04T23:42:21.761Z,33.84
2022-11-04T23:45:14.895Z,33.54
2022-11-04T23:48:05.663Z,33.25
2022-11-04T23:50:54.695Z,33.16
2022-11-04T23:53:40.234Z,33.68
2022-11-04T23:56:28.880Z,33.60
2022-11-04T23:59:14.610Z,33.88
